createdAt,value
2022-12-18T00:00:11.624Z,0.00
2022-12-18T00:02:39.668Z,-0.10
2022-12-18T00:05:09.078Z,0.00
2022-12-18T00:07:39.091Z,0.00
2022-12-18T00:10:08.244Z,-0.10
2022-12-18T00:12:36.152Z,-0.10
2022-12-18T00:15:04.456Z,-0.30
2022-12-18T00:17:32.840Z,-0.20
2022-12-18T00:20:00.871Z,-0.30
2022-12-18T00:22:28.973Z,-0.30
2022-12-18T00:24:58.423Z,-0.20
2022-12-18T00:27:26.848Z,-0.10
2022-12-18T00:29:54.700Z,-0.10
2022-12-18T00:32:22.631Z,-0.10
2022-12-18T00:34:50.575Z,0.00
2022-12-18T00:37:20.382Z,0.00
2022-12-18T00:39:50.927Z,0.00
2022-12-18T00:42:37.807Z,0.00
2022-12-18T00:45:12.074Z,-0.20
2022-12-18T00:47:41.059Z,-0.20
2022-12-18T00:50:10.472Z,-0.30
2022-12-18T00:52:38.359Z,-0.30
2022-12-18T00:55:07.060Z,-0.20
2022-12-18T00:57:36.684Z,-0.20
2022-12-18T01:00:06.308Z,-0.20
2022-12-18T01:02:34.399Z,-0.20
2022-12-18T01:05:02.588Z,-0.20
2022-12-18T01:07:30.548Z,-0.30
2022-12-18T01:09:58.627Z,-0.20
2022-12-18T01:12:26.529Z,-0.20
2022-12-18T01:14:55.986Z,-0.20
2022-12-18T01:17:23.983Z,-0.10
2022-12-18T01:19:51.931Z,-0.10
2022-12-18T01:22:19.892Z,-0.10
2022-12-18T01:24:47.720Z,-0.10
2022-12-18T01:27:15.644Z,-0.10
2022-12-18T01:29:43.755Z,0.00
2022-12-18T01:32:13.092Z,0.00
2022-12-18T01:34:41.327Z,0.00
2022-12-18T01:37:09.318Z,0.00
2022-12-18T01:39:37.210Z,-0.10
2022-12-18T01:42:05.650Z,0.00
2022-12-18T01:44:56.789Z,0.00
2022-12-18T01:47:28.036Z,0.00
2022-12-18T01:49:57.289Z,-0.10
2022-12-18T01:52:28.179Z,-0.10
2022-12-18T01:54:57.649Z,-0.20
2022-12-18T01:57:26.793Z,0.10
2022-12-18T01:59:58.814Z,0.20
2022-12-18T02:02:29.851Z,0.20
2022-12-18T02:04:57.867Z,0.30
2022-12-18T02:07:32.838Z,0.30
2022-12-18T02:10:07.450Z,0.20
2022-12-18T02:12:44.563Z,0.20
2022-12-18T02:15:18.572Z,0.20
2022-12-18T02:17:54.109Z,0.10
2022-12-18T02:20:29.956Z,0.10
2022-12-18T02:23:08.637Z,0.10
2022-12-18T02:26:15.359Z,0.10
2022-12-18T02:28:48.273Z,0.10
2022-12-18T02:31:20.310Z,0.10
2022-12-18T02:33:49.546Z,0.20
2022-12-18T02:36:19.283Z,0.30
2022-12-18T02:38:48.647Z,0.30
2022-12-18T02:41:18.575Z,0.20
2022-12-18T02:43:50.138Z,0.30
2022-12-18T02:46:35.286Z,0.30
2022-12-18T02:49:16.055Z,0.40
2022-12-18T02:51:52.679Z,0.20
2022-12-18T02:54:28.481Z,0.10
2022-12-18T02:56:59.741Z,0.10
2022-12-18T02:59:39.486Z,0.20
2022-12-18T03:02:15.292Z,0.30
2022-12-18T03:04:49.547Z,0.20
2022-12-18T03:07:22.718Z,0.20
2022-12-18T03:09:53.772Z,0.30
2022-12-18T03:12:29.736Z,0.30
2022-12-18T03:15:05.302Z,0.20
2022-12-18T03:17:35.758Z,0.30
2022-12-18T03:20:07.681Z,0.30
2022-12-18T03:22:39.267Z,0.30
2022-12-18T03:25:11.465Z,0.30
2022-12-18T03:27:40.931Z,0.30
2022-12-18T03:30:14.091Z,0.40
2022-12-18T03:32:46.596Z,0.40
2022-12-18T03:35:16.279Z,0.30
2022-12-18T03:37:44.287Z,0.20
2022-12-18T03:40:12.787Z,0.10
2022-12-18T03:42:49.857Z,0.20
2022-12-18T03:45:26.073Z,0.30
2022-12-18T03:48:02.841Z,0.20
2022-12-18T03:50:39.771Z,0.20
2022-12-18T03:53:19.369Z,0.10
2022-12-18T03:55:49.957Z,0.20
2022-12-18T03:58:22.656Z,0.20
2022-12-18T04:00:54.168Z,0.20
2022-12-18T04:03:26.416Z,0.30
2022-12-18T04:05:57.423Z,0.20
2022-12-18T04:08:26.754Z,0.20
2022-12-18T04:10:54.750Z,0.20
2022-12-18T04:13:26.815Z,0.20
2022-12-18T04:15:56.252Z,0.20
2022-12-18T04:18:24.156Z,0.20
2022-12-18T04:20:52.109Z,0.10
2022-12-18T04:23:20.188Z,0.20
2022-12-18T04:25:49.346Z,0.30
2022-12-18T04:28:17.296Z,0.30
2022-12-18T04:30:45.229Z,0.30
2022-12-18T04:33:16.228Z,0.30
2022-12-18T04:35:44.415Z,0.10
2022-12-18T04:38:12.532Z,0.20
2022-12-18T04:40:41.833Z,0.10
2022-12-18T04:43:10.190Z,0.00
2022-12-18T04:45:38.508Z,0.10
2022-12-18T04:48:06.909Z,0.10
2022-12-18T04:50:36.207Z,0.00
2022-12-18T04:53:04.249Z,0.00
2022-12-18T04:55:32.166Z,0.10
2022-12-18T04:58:00.021Z,0.10
2022-12-18T05:00:28.087Z,0.10
2022-12-18T05:02:56.245Z,0.10
2022-12-18T05:05:24.228Z,0.20
2022-12-18T05:07:53.450Z,0.20
2022-12-18T05:10:21.357Z,0.20
2022-12-18T05:13:01.567Z,0.10
2022-12-18T05:15:31.237Z,0.10
2022-12-18T05:17:59.205Z,0.00
2022-12-18T05:20:28.701Z,0.00
2022-12-18T05:22:58.672Z,0.00
2022-12-18T05:25:26.695Z,0.10
2022-12-18T05:27:54.533Z,0.20
2022-12-18T05:30:23.392Z,0.10
2022-12-18T05:32:51.334Z,0.10
2022-12-18T05:35:19.783Z,0.00
2022-12-18T05:37:50.493Z,0.00
2022-12-18T05:40:19.854Z,0.00
2022-12-18T05:42:47.802Z,0.00
2022-12-18T05:45:15.815Z,-0.10
2022-12-18T05:47:43.697Z,-0.10
2022-12-18T05:50:11.792Z,-0.10
2022-12-18T05:52:39.644Z,0.00
2022-12-18T05:55:07.890Z,0.00
2022-12-18T05:57:37.140Z,0.10
2022-12-18T06:00:05.799Z,0.10
2022-12-18T06:02:33.785Z,0.20
2022-12-18T06:05:02.457Z,0.10
2022-12-18T06:07:30.388Z,0.10
2022-12-18T06:09:58.293Z,0.10
2022-12-18T06:12:26.333Z,0.10
2022-12-18T06:14:55.664Z,0.10
2022-12-18T06:17:23.660Z,0.10
2022-12-18T06:19:51.681Z,0.10
2022-12-18T06:22:20.205Z,0.10
2022-12-18T06:24:48.992Z,0.10
2022-12-18T06:27:17.340Z,0.10
2022-12-18T06:29:45.285Z,0.00
2022-12-18T06:32:14.599Z,0.00
2022-12-18T06:34:42.613Z,-0.10
2022-12-18T06:37:10.633Z,-0.10
2022-12-18T06:39:38.779Z,0.00
2022-12-18T06:42:07.254Z,-0.10
2022-12-18T06:44:35.204Z,-0.10
2022-12-18T06:47:03.178Z,-0.10
2022-12-18T06:49:32.454Z,0.10
2022-12-18T06:52:00.467Z,0.10
2022-12-18T06:54:28.604Z,0.10
2022-12-18T06:56:56.702Z,0.20
2022-12-18T06:59:24.711Z,0.30
2022-12-18T07:01:52.809Z,0.20
2022-12-18T07:04:20.835Z,0.10
2022-12-18T07:06:50.109Z,0.00
2022-12-18T07:09:18.038Z,0.10
2022-12-18T07:11:45.989Z,0.10
2022-12-18T07:14:14.086Z,0.20
2022-12-18T07:16:42.096Z,0.20
2022-12-18T07:19:10.298Z,0.20
2022-12-18T07:21:38.200Z,0.20
2022-12-18T07:24:08.646Z,0.20
2022-12-18T07:26:36.640Z,0.10
2022-12-18T07:29:04.677Z,0.10
2022-12-18T07:31:32.613Z,0.10
2022-12-18T07:34:00.963Z,0.10
2022-12-18T07:36:28.952Z,0.20
2022-12-18T07:38:56.980Z,0.20
2022-12-18T07:41:26.315Z,0.20
2022-12-18T07:43:54.302Z,0.20
2022-12-18T07:46:22.312Z,0.30
2022-12-18T07:48:50.659Z,0.20
2022-12-18T07:51:19.850Z,0.10
2022-12-18T07:53:49.672Z,0.10
2022-12-18T07:56:29.028Z,0.30
2022-12-18T07:59:00.145Z,0.30
2022-12-18T08:01:28.848Z,0.30
2022-12-18T08:03:56.949Z,0.20
2022-12-18T08:06:25.160Z,0.20
2022-12-18T08:08:54.434Z,0.30
2022-12-18T08:11:22.547Z,0.30
2022-12-18T08:13:50.458Z,0.30
2022-12-18T08:16:20.126Z,0.40
2022-12-18T08:18:49.524Z,0.30
2022-12-18T08:21:19.294Z,0.30
2022-12-18T08:23:51.116Z,0.40
2022-12-18T08:26:19.875Z,0.20
2022-12-18T08:28:49.354Z,0.10
2022-12-18T08:31:20.170Z,0.00
2022-12-18T08:33:51.021Z,0.00
2022-12-18T08:36:19.300Z,0.00
2022-12-18T08:38:47.646Z,0.00
2022-12-18T08:41:18.413Z,0.10
2022-12-18T08:44:04.361Z,0.00
2022-12-18T08:46:38.021Z,0.10
2022-12-18T08:49:06.517Z,0.30
2022-12-18T08:51:34.554Z,0.30
2022-12-18T08:54:03.041Z,0.50
2022-12-18T08:56:32.600Z,0.50
2022-12-18T08:59:00.632Z,0.60
2022-12-18T09:01:29.476Z,0.70
2022-12-18T09:03:58.944Z,0.80
2022-12-18T09:06:27.454Z,0.90
2022-12-18T09:08:55.488Z,1.00
2022-12-18T09:11:26.171Z,1.10
2022-12-18T09:13:55.753Z,1.20
2022-12-18T09:16:28.823Z,1.30
2022-12-18T09:19:01.371Z,1.30
2022-12-18T09:21:31.403Z,1.40
2022-12-18T09:24:01.228Z,1.40
2022-12-18T09:26:29.246Z,1.50
2022-12-18T09:28:57.188Z,1.50
2022-12-18T09:31:26.387Z,1.60
2022-12-18T09:33:54.317Z,1.70
2022-12-18T09:36:23.653Z,1.80
2022-12-18T09:38:51.633Z,1.80
2022-12-18T09:41:42.272Z,1.80
2022-12-18T09:44:24.348Z,1.70
2022-12-18T09:47:00.372Z,1.90
2022-12-18T09:49:32.448Z,1.80
2022-12-18T09:52:06.718Z,1.80
2022-12-18T09:54:40.367Z,1.90
2022-12-18T09:57:08.579Z,1.80
2022-12-18T09:59:38.989Z,1.80
2022-12-18T10:02:22.254Z,1.90
2022-12-18T10:05:02.255Z,1.90
2022-12-18T10:07:52.381Z,1.80
2022-12-18T10:10:35.731Z,1.70
2022-12-18T10:13:16.473Z,1.80
2022-12-18T10:16:02.381Z,1.80
2022-12-18T10:19:12.776Z,1.80
2022-12-18T10:21:48.072Z,1.90
2022-12-18T10:24:23.481Z,1.90
2022-12-18T10:26:51.511Z,2.00
2022-12-18T10:29:19.491Z,2.00
2022-12-18T10:31:47.628Z,2.00
2022-12-18T10:34:15.726Z,2.00
2022-12-18T10:36:44.698Z,2.00
2022-12-18T10:39:23.239Z,1.90
2022-12-18T10:41:51.255Z,2.00
2022-12-18T10:44:21.183Z,2.00
2022-12-18T10:46:51.700Z,2.00
2022-12-18T10:49:24.341Z,2.00
2022-12-18T10:51:53.236Z,2.10
2022-12-18T10:54:25.367Z,2.10
2022-12-18T10:56:53.492Z,2.10
2022-12-18T10:59:22.104Z,2.10
2022-12-18T11:01:53.371Z,2.10
2022-12-18T11:04:24.141Z,2.10
2022-12-18T11:06:58.218Z,2.00
2022-12-18T11:09:29.037Z,2.00
2022-12-18T11:12:00.052Z,2.00
2022-12-18T11:14:31.131Z,2.00
2022-12-18T11:19:55.032Z,2.00
2022-12-18T11:22:27.218Z,2.00
2022-12-18T11:27:54.669Z,2.00
2022-12-18T11:30:28.648Z,2.10
2022-12-18T11:33:03.934Z,2.10
2022-12-18T11:35:49.626Z,2.20
2022-12-18T11:38:24.200Z,2.20
2022-12-18T11:40:58.191Z,2.20
2022-12-18T11:43:31.608Z,2.10
2022-12-18T11:46:04.807Z,2.10
2022-12-18T11:48:36.065Z,2.10
2022-12-18T11:51:07.641Z,2.10
2022-12-18T11:53:39.115Z,2.10
2022-12-18T11:56:28.132Z,2.20
2022-12-18T11:59:05.411Z,2.20
2022-12-18T12:01:45.176Z,2.10
2022-12-18T12:04:38.311Z,2.10
2022-12-18T12:07:21.596Z,2.00
2022-12-18T12:09:54.780Z,2.00
2022-12-18T12:12:48.591Z,2.00
2022-12-18T12:15:28.029Z,2.10
2022-12-18T12:18:08.194Z,2.00
2022-12-18T12:20:48.537Z,2.00
2022-12-18T12:23:27.893Z,2.00
2022-12-18T12:26:03.745Z,2.00
2022-12-18T12:29:01.918Z,2.00
2022-12-18T12:31:46.643Z,2.00
2022-12-18T12:34:20.080Z,1.90
2022-12-18T12:37:02.848Z,1.90
2022-12-18T12:39:37.130Z,1.90
2022-12-18T12:42:25.058Z,1.90
2022-12-18T12:44:57.670Z,1.90
2022-12-18T12:47:27.674Z,1.90
2022-12-18T12:49:57.614Z,1.90
2022-12-18T12:52:32.693Z,1.80
2022-12-18T12:55:02.191Z,1.90
2022-12-18T12:57:36.890Z,1.90
2022-12-18T13:00:13.093Z,1.80
2022-12-18T13:02:52.944Z,1.90
2022-12-18T13:05:27.401Z,1.90
2022-12-18T13:08:00.160Z,1.80
2022-12-18T13:10:35.148Z,1.70
2022-12-18T13:13:05.549Z,1.70
2022-12-18T13:15:47.812Z,1.70
2022-12-18T13:18:21.677Z,1.70
2022-12-18T13:20:55.269Z,1.70
2022-12-18T13:23:37.664Z,1.70
2022-12-18T13:26:32.188Z,1.70
2022-12-18T13:29:02.896Z,1.60
2022-12-18T13:32:13.718Z,1.60
2022-12-18T13:34:46.430Z,1.60
2022-12-18T13:37:44.379Z,1.50
2022-12-18T13:41:00.229Z,1.50
2022-12-18T13:43:44.359Z,1.50
2022-12-18T13:46:24.523Z,1.50
2022-12-18T13:48:56.580Z,1.40
2022-12-18T13:51:27.533Z,1.40
2022-12-18T13:53:58.922Z,1.40
2022-12-18T13:56:29.468Z,1.40
2022-12-18T13:59:19.252Z,1.40
2022-12-18T14:01:54.980Z,1.40
2022-12-18T14:04:28.949Z,1.40
2022-12-18T14:07:03.661Z,1.40
2022-12-18T14:09:36.857Z,1.30
2022-12-18T14:12:24.610Z,1.30
2022-12-18T14:14:55.407Z,1.20
2022-12-18T14:17:25.407Z,1.30
2022-12-18T14:19:54.016Z,1.30
2022-12-18T14:22:30.332Z,1.20
2022-12-18T14:25:16.420Z,1.20
2022-12-18T14:27:46.288Z,1.20
2022-12-18T14:30:29.018Z,1.20
2022-12-18T14:33:04.014Z,1.10
2022-12-18T14:35:32.089Z,1.10
2022-12-18T14:38:23.154Z,1.00
2022-12-18T14:40:55.106Z,1.00
2022-12-18T14:43:23.461Z,1.10
2022-12-18T14:45:51.984Z,1.00
2022-12-18T14:48:24.055Z,1.10
2022-12-18T14:51:01.941Z,1.00
2022-12-18T14:53:37.549Z,1.00
2022-12-18T14:56:15.153Z,1.00
2022-12-18T14:58:50.440Z,1.00
2022-12-18T15:01:27.513Z,0.90
2022-12-18T15:03:56.902Z,1.00
2022-12-18T15:06:33.005Z,0.90
2022-12-18T15:09:03.978Z,0.80
2022-12-18T15:11:36.941Z,0.80
2022-12-18T15:14:24.495Z,0.70
2022-12-18T15:16:56.409Z,0.70
2022-12-18T15:19:30.577Z,0.70
2022-12-18T15:22:05.916Z,0.80
2022-12-18T15:24:35.942Z,0.70
2022-12-18T15:27:03.989Z,0.70
2022-12-18T15:29:32.151Z,0.70
2022-12-18T15:32:02.568Z,0.70
2022-12-18T15:34:31.171Z,0.70
2022-12-18T15:36:59.125Z,0.70
2022-12-18T15:39:27.130Z,0.70
2022-12-18T15:42:25.360Z,0.70
2022-12-18T15:44:53.436Z,0.60
2022-12-18T15:47:21.374Z,0.70
2022-12-18T15:49:49.282Z,0.70
2022-12-18T15:52:26.852Z,0.70
2022-12-18T15:55:12.412Z,0.60
2022-12-18T15:57:41.716Z,0.60
2022-12-18T16:00:14.569Z,0.60
2022-12-18T16:02:42.713Z,0.60
2022-12-18T16:05:18.017Z,0.60
2022-12-18T16:07:46.709Z,0.50
2022-12-18T16:10:16.146Z,0.50
2022-12-18T16:12:45.906Z,0.50
2022-12-18T16:15:22.499Z,0.50
2022-12-18T16:17:52.601Z,0.50
2022-12-18T16:20:23.159Z,0.30
2022-12-18T16:22:51.665Z,0.40
2022-12-18T16:25:22.392Z,0.40
2022-12-18T16:27:52.683Z,0.40
2022-12-18T16:30:22.917Z,0.40
2022-12-18T16:32:51.254Z,0.40
2022-12-18T16:35:19.296Z,0.40
2022-12-18T16:37:47.260Z,0.40
2022-12-18T16:40:17.094Z,0.40
2022-12-18T16:42:46.337Z,0.40
2022-12-18T16:45:18.963Z,0.40
2022-12-18T16:47:47.328Z,0.30
2022-12-18T16:50:15.382Z,0.40
2022-12-18T16:52:43.904Z,0.30
2022-12-18T16:55:11.926Z,0.20
2022-12-18T16:57:39.891Z,0.20
2022-12-18T17:00:09.269Z,0.20
2022-12-18T17:02:38.805Z,0.20
2022-12-18T17:05:07.589Z,0.20
2022-12-18T17:07:35.684Z,0.20
2022-12-18T17:10:05.407Z,0.20
2022-12-18T17:12:33.362Z,0.20
2022-12-18T17:15:01.282Z,0.20
2022-12-18T17:17:29.192Z,0.20
2022-12-18T17:19:58.627Z,0.20
2022-12-18T17:22:26.612Z,0.20
2022-12-18T17:24:54.592Z,0.10
2022-12-18T17:27:22.528Z,0.20
2022-12-18T17:29:50.460Z,0.30
2022-12-18T17:32:19.140Z,0.20
2022-12-18T17:34:47.152Z,0.30
2022-12-18T17:37:16.759Z,0.30
2022-12-18T17:39:44.719Z,0.20
2022-12-18T17:42:15.541Z,0.10
2022-12-18T17:44:44.208Z,0.10
2022-12-18T17:47:12.930Z,0.00
2022-12-18T17:49:41.208Z,0.00
2022-12-18T17:52:09.226Z,0.00
2022-12-18T17:54:41.305Z,0.00
2022-12-18T17:57:10.412Z,0.10
2022-12-18T17:59:38.359Z,0.10
2022-12-18T18:02:06.391Z,0.10
2022-12-18T18:04:34.622Z,0.10
2022-12-18T18:07:02.984Z,0.00
2022-12-18T18:09:31.098Z,0.10
2022-12-18T18:12:17.715Z,0.10
2022-12-18T18:14:45.731Z,0.00
2022-12-18T18:17:13.661Z,0.00
2022-12-18T18:19:42.094Z,0.00
2022-12-18T18:22:11.881Z,0.00
2022-12-18T18:24:40.030Z,-0.10
2022-12-18T18:27:09.293Z,0.00
2022-12-18T18:29:37.437Z,0.00
2022-12-18T18:32:05.901Z,0.00
2022-12-18T18:34:34.400Z,0.10
2022-12-18T18:37:02.994Z,0.10
2022-12-18T18:39:31.450Z,0.00
2022-12-18T18:41:59.324Z,0.00
2022-12-18T18:44:29.125Z,-0.10
2022-12-18T18:46:58.203Z,-0.10
2022-12-18T18:49:27.969Z,-0.20
2022-12-18T18:51:56.783Z,-0.20
2022-12-18T18:54:24.985Z,-0.20
2022-12-18T18:59:42.927Z,-0.20
2022-12-18T19:02:13.087Z,-0.20
2022-12-18T19:04:45.707Z,-0.20
2022-12-18T19:07:14.554Z,-0.10
2022-12-18T19:09:51.995Z,-0.10
2022-12-18T19:12:37.446Z,-0.10
2022-12-18T19:15:09.549Z,-0.10
2022-12-18T19:17:38.433Z,-0.20
2022-12-18T19:20:08.681Z,-0.20
2022-12-18T19:22:39.689Z,-0.20
2022-12-18T19:25:09.259Z,-0.20
2022-12-18T19:27:40.041Z,-0.20
2022-12-18T19:30:11.390Z,-0.20
2022-12-18T19:32:39.381Z,-0.20
2022-12-18T19:35:07.984Z,-0.20
2022-12-18T19:37:36.293Z,-0.20
2022-12-18T19:40:09.159Z,-0.20
2022-12-18T19:42:40.699Z,-0.10
2022-12-18T19:45:11.000Z,-0.20
2022-12-18T19:47:39.159Z,-0.20
2022-12-18T19:50:08.481Z,-0.20
2022-12-18T19:52:36.579Z,-0.10
2022-12-18T19:55:05.375Z,-0.10
2022-12-18T19:57:33.253Z,0.00
2022-12-18T20:00:01.211Z,-0.10
2022-12-18T20:02:31.104Z,-0.10
2022-12-18T20:04:59.247Z,-0.10
2022-12-18T20:07:27.283Z,-0.10
2022-12-18T20:10:01.361Z,-0.10
2022-12-18T20:12:33.435Z,-0.20
2022-12-18T20:15:01.468Z,-0.20
2022-12-18T20:17:30.833Z,-0.10
2022-12-18T20:19:58.881Z,-0.20
2022-12-18T20:22:27.049Z,-0.20
2022-12-18T20:24:55.109Z,-0.20
2022-12-18T20:27:23.105Z,-0.10
2022-12-18T20:29:52.075Z,-0.10
2022-12-18T20:32:19.994Z,-0.10
2022-12-18T20:34:49.643Z,-0.10
2022-12-18T20:37:17.830Z,-0.10
2022-12-18T20:39:47.133Z,-0.10
2022-12-18T20:42:15.352Z,-0.20
2022-12-18T20:44:43.212Z,-0.20
2022-12-18T20:47:11.025Z,-0.20
2022-12-18T20:49:39.546Z,-0.20
2022-12-18T20:52:12.669Z,-0.20
2022-12-18T20:54:40.574Z,-0.10
2022-12-18T20:57:08.498Z,-0.10
2022-12-18T20:59:36.428Z,-0.20
2022-12-18T21:02:04.596Z,-0.20
2022-12-18T21:04:32.792Z,-0.20
2022-12-18T21:07:02.630Z,-0.20
2022-12-18T21:09:37.598Z,-0.20
2022-12-18T21:12:25.441Z,-0.20
2022-12-18T21:14:53.394Z,-0.20
2022-12-18T21:17:21.412Z,-0.10
2022-12-18T21:19:49.380Z,-0.10
2022-12-18T21:22:17.385Z,-0.10
2022-12-18T21:24:46.871Z,-0.20
2022-12-18T21:27:16.307Z,-0.20
2022-12-18T21:29:47.059Z,-0.20
2022-12-18T21:32:15.265Z,-0.20
2022-12-18T21:34:47.660Z,-0.30
2022-12-18T21:37:16.318Z,-0.30
2022-12-18T21:39:44.457Z,-0.30
2022-12-18T21:42:31.777Z,-0.30
2022-12-18T21:44:59.829Z,-0.30
2022-12-18T21:47:27.880Z,-0.30
2022-12-18T21:49:56.064Z,-0.30
2022-12-18T21:52:31.618Z,-0.30
2022-12-18T21:55:06.592Z,-0.30
2022-12-18T21:57:37.966Z,-0.30
2022-12-18T22:00:07.386Z,-0.30
2022-12-18T22:02:35.499Z,-0.30
2022-12-18T22:05:03.641Z,-0.30
2022-12-18T22:07:31.942Z,-0.30
2022-12-18T22:10:00.174Z,-0.20
2022-12-18T22:12:44.420Z,-0.20
2022-12-18T22:15:20.296Z,-0.20
2022-12-18T22:17:50.280Z,-0.20
2022-12-18T22:20:20.037Z,-0.20
2022-12-18T22:22:48.451Z,-0.20
2022-12-18T22:25:16.438Z,-0.30
2022-12-18T22:28:04.499Z,-0.30
2022-12-18T22:30:32.791Z,-0.20
2022-12-18T22:33:00.997Z,-0.30
2022-12-18T22:35:28.935Z,-0.20
2022-12-18T22:37:58.967Z,-0.20
2022-12-18T22:40:26.919Z,-0.20
2022-12-18T22:42:55.859Z,-0.20
2022-12-18T22:45:23.917Z,-0.20
2022-12-18T22:47:53.621Z,-0.20
2022-12-18T22:50:21.682Z,-0.20
2022-12-18T22:52:49.614Z,-0.20
2022-12-18T22:55:17.571Z,-0.20
2022-12-18T22:57:48.652Z,-0.20
2022-12-18T23:00:17.640Z,-0.20
2022-12-18T23:02:55.799Z,-0.20
2022-12-18T23:05:29.602Z,-0.20
2022-12-18T23:07:57.642Z,-0.10
2022-12-18T23:10:25.779Z,0.00
2022-12-18T23:12:53.816Z,-0.10
2022-12-18T23:15:27.722Z,0.00
2022-12-18T23:17:57.365Z,-0.10
2022-12-18T23:20:25.382Z,-0.10
2022-12-18T23:22:54.682Z,-0.20
2022-12-18T23:25:22.735Z,-0.20
2022-12-18T23:27:50.659Z,-0.20
2022-12-18T23:30:18.731Z,-0.20
2022-12-18T23:32:46.745Z,-0.20
2022-12-18T23:35:15.794Z,-0.10
2022-12-18T23:38:00.149Z,-0.10
2022-12-18T23:40:30.342Z,-0.10
2022-12-18T23:42:59.507Z,-0.20
2022-12-18T23:45:27.535Z,-0.20
2022-12-18T23:47:55.499Z,-0.10
2022-12-18T23:50:28.982Z,-0.20
2022-12-18T23:53:03.265Z,-0.20
2022-12-18T23:55:39.565Z,-0.20
2022-12-18T23:58:07.885Z,-0.20
